sensor_id;sensor_type;location;lat;lon;timestamp;pressure;altitude;pressure_sealevel;temperature;humidity
43312;BME280;30041;48.300;16.352;2023-01-15T00:02:05;99380.03;;;22.70;43.34
43312;BME280;30041;48.300;16.352;2023-01-15T00:04:31;99374.63;;;22.70;43.11
43312;BME280;30041;48.300;16.352;2023-01-15T00:06:56;99366.84;;;22.74;42.96
43312;BME280;30041;48.300;16.352;2023-01-15T00:09:22;99358.97;;;22.72;43.22
43312;BME280;30041;48.300;16.352;2023-01-15T00:11:47;99369.22;;;22.70;43.27
43312;BME280;30041;48.300;16.352;2023-01-15T00:14:13;99363.00;;;22.70;43.34
43312;BME280;30041;48.300;16.352;2023-01-15T00:16:39;99364.13;;;22.74;43.26
43312;BME280;30041;48.300;16.352;2023-01-15T00:19:05;99357.94;;;22.73;43.17
43312;BME280;30041;48.300;16.352;2023-01-15T00:21:31;99360.06;;;22.71;43.30
43312;BME280;30041;48.300;16.352;2023-01-15T00:23:56;99352.53;;;22.73;43.23
43312;BME280;30041;48.300;16.352;2023-01-15T00:26:27;99356.56;;;22.71;42.99
43312;BME280;30041;48.300;16.352;2023-01-15T00:28:53;99348.75;;;22.74;43.29
43312;BME280;30041;48.300;16.352;2023-01-15T00:31:18;99353.34;;;22.74;43.04
43312;BME280;30041;48.300;16.352;2023-01-15T00:33:44;99347.69;;;22.75;43.12
43312;BME280;30041;48.300;16.352;2023-01-15T00:36:09;99346.84;;;22.75;43.07
43312;BME280;30041;48.300;16.352;2023-01-15T00:38:35;99341.19;;;22.76;43.22
43312;BME280;30041;48.300;16.352;2023-01-15T00:41:07;99341.19;;;22.76;43.08
43312;BME280;30041;48.300;16.352;2023-01-15T00:43:32;99351.19;;;22.76;43.08
43312;BME280;30041;48.300;16.352;2023-01-15T00:46:00;99359.31;;;22.76;43.31
43312;BME280;30041;48.300;16.352;2023-01-15T00:48:26;99351.72;;;22.73;43.11
43312;BME280;30041;48.300;16.352;2023-01-15T00:50:52;99350.13;;;22.77;43.12
43312;BME280;30041;48.300;16.352;2023-01-15T00:53:17;99345.78;;;22.76;43.18
43312;BME280;30041;48.300;16.352;2023-01-15T00:55:43;99343.66;;;22.78;43.04
43312;BME280;30041;48.300;16.352;2023-01-15T00:58:09;99342.84;;;22.77;43.31
43312;BME280;30041;48.300;16.352;2023-01-15T01:00:34;99342.00;;;22.77;43.06
43312;BME280;30041;48.300;16.352;2023-01-15T01:03:00;99332.28;;;22.76;43.04
43312;BME280;30041;48.300;16.352;2023-01-15T01:05:25;99342.28;;;22.75;43.29
43312;BME280;30041;48.300;16.352;2023-01-15T01:07:54;99332.28;;;22.76;43.33
43312;BME280;30041;48.300;16.352;2023-01-15T01:10:20;99333.34;;;22.75;43.22
43312;BME280;30041;48.300;16.352;2023-01-15T01:12:45;99326.94;;;22.81;43.00
43312;BME280;30041;48.300;16.352;2023-01-15T01:15:11;99322.63;;;22.80;42.98
43312;BME280;30041;48.300;16.352;2023-01-15T01:17:37;99323.41;;;22.80;42.94
43312;BME280;30041;48.300;16.352;2023-01-15T01:20:03;99317.44;;;22.78;43.23
43312;BME280;30041;48.300;16.352;2023-01-15T01:22:29;99313.13;;;22.77;43.21
43312;BME280;30041;48.300;16.352;2023-01-15T01:24:55;99310.44;;;22.77;43.23
43312;BME280;30041;48.300;16.352;2023-01-15T01:27:21;99311.53;;;22.82;43.21
43312;BME280;30041;48.300;16.352;2023-01-15T01:29:47;99313.97;;;22.83;43.03
43312;BME280;30041;48.300;16.352;2023-01-15T01:32:12;99300.19;;;22.79;43.38
43312;BME280;30041;48.300;16.352;2023-01-15T01:34:38;99291.00;;;22.80;43.31
43312;BME280;30041;48.300;16.352;2023-01-15T01:37:03;99291.81;;;22.81;43.23
43312;BME280;30041;48.300;16.352;2023-01-15T01:39:29;99292.63;;;22.82;42.90
43312;BME280;30041;48.300;16.352;2023-01-15T01:41:54;99282.94;;;22.86;43.11
43312;BME280;30041;48.300;16.352;2023-01-15T01:47:02;99276.16;;;22.83;43.22
43312;BME280;30041;48.300;16.352;2023-01-15T01:49:29;99272.13;;;22.86;43.09
43312;BME280;30041;48.300;16.352;2023-01-15T01:52:01;99267.81;;;22.85;43.09
43312;BME280;30041;48.300;16.352;2023-01-15T01:54:29;99254.88;;;22.87;42.87
43312;BME280;30041;48.300;16.352;2023-01-15T01:56:57;99249.75;;;22.90;42.97
43312;BME280;30041;48.300;16.352;2023-01-15T01:59:24;99260.06;;;22.93;42.89
43312;BME280;30041;48.300;16.352;2023-01-15T02:01:50;99250.31;;;22.92;42.98
43312;BME280;30041;48.300;16.352;2023-01-15T02:04:17;99250.25;;;22.87;43.18
43312;BME280;30041;48.300;16.352;2023-01-15T02:06:45;99251.31;;;22.86;42.84
43312;BME280;30041;48.300;16.352;2023-01-15T02:09:11;99255.66;;;22.87;42.94
43312;BME280;30041;48.300;16.352;2023-01-15T02:11:39;99232.41;;;22.86;42.90
43312;BME280;30041;48.300;16.352;2023-01-15T02:14:24;99237.56;;;22.88;43.15
43312;BME280;30041;48.300;16.352;2023-01-15T02:17:16;99241.03;;;22.83;42.86
43312;BME280;30041;48.300;16.352;2023-01-15T02:22:29;99236.19;;;22.85;43.16
43312;BME280;30041;48.300;16.352;2023-01-15T02:28:26;99218.38;;;22.84;42.97
43312;BME280;30041;48.300;16.352;2023-01-15T02:30:54;99231.59;;;22.86;43.16
43312;BME280;30041;48.300;16.352;2023-01-15T02:33:32;99218.66;;;22.88;42.94
43312;BME280;30041;48.300;16.352;2023-01-15T02:35:59;99213.00;;;22.89;42.91
43312;BME280;30041;48.300;16.352;2023-01-15T02:38:28;99207.56;;;22.84;43.01
43312;BME280;30041;48.300;16.352;2023-01-15T02:41:01;99203.56;;;22.92;43.10
43312;BME280;30041;48.300;16.352;2023-01-15T02:43:34;99214.06;;;22.88;43.08
43312;BME280;30041;48.300;16.352;2023-01-15T02:46:02;99207.59;;;22.89;42.99
43312;BME280;30041;48.300;16.352;2023-01-15T02:48:31;99217.06;;;22.92;42.82
43312;BME280;30041;48.300;16.352;2023-01-15T02:51:09;99205.13;;;22.88;43.21
43312;BME280;30041;48.300;16.352;2023-01-15T02:53:37;99191.06;;;22.86;43.18
43312;BME280;30041;48.300;16.352;2023-01-15T02:56:15;99197.34;;;22.91;42.99
43312;BME280;30041;48.300;16.352;2023-01-15T02:58:43;99189.47;;;22.90;43.14
43312;BME280;30041;48.300;16.352;2023-01-15T03:01:44;99187.56;;;22.85;43.17
43312;BME280;30041;48.300;16.352;2023-01-15T03:04:19;99180.56;;;22.89;42.84
43312;BME280;30041;48.300;16.352;2023-01-15T03:09:30;99177.34;;;22.92;43.10
43312;BME280;30041;48.300;16.352;2023-01-15T03:12:07;99167.88;;;22.90;43.13
43312;BME280;30041;48.300;16.352;2023-01-15T03:17:16;99168.97;;;22.94;42.77
43312;BME280;30041;48.300;16.352;2023-01-15T03:19:50;99159.00;;;22.94;43.07
43312;BME280;30041;48.300;16.352;2023-01-15T03:25:00;99139.25;;;22.94;42.95
43312;BME280;30041;48.300;16.352;2023-01-15T03:27:27;99141.41;;;22.92;43.16
43312;BME280;30041;48.300;16.352;2023-01-15T03:29:58;99134.09;;;22.92;42.89
43312;BME280;30041;48.300;16.352;2023-01-15T03:32:25;99130.34;;;22.93;42.85
43312;BME280;30041;48.300;16.352;2023-01-15T03:34:53;99123.84;;;22.94;42.86
43312;BME280;30041;48.300;16.352;2023-01-15T03:37:20;99127.38;;;22.95;42.87
43312;BME280;30041;48.300;16.352;2023-01-15T03:39:47;99120.34;;;22.94;42.94
43312;BME280;30041;48.300;16.352;2023-01-15T03:45:10;99124.66;;;22.95;42.81
43312;BME280;30041;48.300;16.352;2023-01-15T03:47:48;99119.25;;;22.95;43.03
43312;BME280;30041;48.300;16.352;2023-01-15T03:55:35;99135.22;;;22.96;42.80
43312;BME280;30041;48.300;16.352;2023-01-15T03:58:38;99137.69;;;22.98;43.12
43312;BME280;30041;48.300;16.352;2023-01-15T04:01:09;99123.59;;;22.96;43.04
43312;BME280;30041;48.300;16.352;2023-01-15T04:03:36;99134.41;;;22.96;43.02
43312;BME280;30041;48.300;16.352;2023-01-15T04:06:04;99145.22;;;22.96;42.90
43312;BME280;30041;48.300;16.352;2023-01-15T04:08:38;99143.88;;;22.98;42.55
43312;BME280;30041;48.300;16.352;2023-01-15T04:11:05;99139.28;;;22.99;42.86
43312;BME280;30041;48.300;16.352;2023-01-15T04:13:30;99145.53;;;22.99;42.85
43312;BME280;30041;48.300;16.352;2023-01-15T04:15:56;99143.31;;;22.96;42.90
43312;BME280;30041;48.300;16.352;2023-01-15T04:18:22;99135.22;;;22.96;42.79
43312;BME280;30041;48.300;16.352;2023-01-15T04:20:47;99130.63;;;22.97;42.89
43312;BME280;30041;48.300;16.352;2023-01-15T04:23:13;99120.66;;;22.97;43.00
43312;BME280;30041;48.300;16.352;2023-01-15T04:25:39;99113.09;;;22.99;42.74
43312;BME280;30041;48.300;16.352;2023-01-15T04:28:04;99110.97;;;23.02;42.78
43312;BME280;30041;48.300;16.352;2023-01-15T04:30:30;99109.84;;;22.97;42.92
43312;BME280;30041;48.300;16.352;2023-01-15T04:32:56;99104.44;;;22.97;43.01
43312;BME280;30041;48.300;16.352;2023-01-15T04:35:21;99106.31;;;22.97;43.01
43312;BME280;30041;48.300;16.352;2023-01-15T04:37:47;99107.69;;;22.99;42.90
43312;BME280;30041;48.300;16.352;2023-01-15T04:40:13;99100.66;;;22.98;42.77
43312;BME280;30041;48.300;16.352;2023-01-15T04:42:38;99104.75;;;23.01;43.04
43312;BME280;30041;48.300;16.352;2023-01-15T04:45:04;99100.16;;;23.02;42.57
43312;BME280;30041;48.300;16.352;2023-01-15T04:47:30;99101.22;;;23.00;42.63
43312;BME280;30041;48.300;16.352;2023-01-15T04:49:56;99100.44;;;23.00;42.62
43312;BME280;30041;48.300;16.352;2023-01-15T04:52:21;99089.63;;;23.00;42.79
43312;BME280;30041;48.300;16.352;2023-01-15T04:54:52;99096.88;;;22.99;42.71
43312;BME280;30041;48.300;16.352;2023-01-15T04:57:18;99090.94;;;22.97;42.64
43312;BME280;30041;48.300;16.352;2023-01-15T04:59:43;99084.22;;;23.00;42.96
43312;BME280;30041;48.300;16.352;2023-01-15T05:02:09;99080.16;;;23.03;43.03
43312;BME280;30041;48.300;16.352;2023-01-15T05:04:34;99085.03;;;23.06;42.76
43312;BME280;30041;48.300;16.352;2023-01-15T05:07:01;99085.03;;;23.06;42.96
43312;BME280;30041;48.300;16.352;2023-01-15T05:09:30;99082.91;;;23.08;42.42
43312;BME280;30041;48.300;16.352;2023-01-15T05:11:56;99081.28;;;23.07;42.56
43312;BME280;30041;48.300;16.352;2023-01-15T05:14:22;99070.47;;;23.07;42.73
43312;BME280;30041;48.300;16.352;2023-01-15T05:16:47;99070.47;;;23.07;42.63
43312;BME280;30041;48.300;16.352;2023-01-15T05:19:13;99073.44;;;23.05;42.83
43312;BME280;30041;48.300;16.352;2023-01-15T05:21:40;99067.22;;;23.05;42.61
43312;BME280;30041;48.300;16.352;2023-01-15T05:24:07;99062.38;;;23.07;42.49
43312;BME280;30041;48.300;16.352;2023-01-15T05:26:34;99061.81;;;23.05;42.75
43312;BME280;30041;48.300;16.352;2023-01-15T05:29:01;99067.22;;;23.05;42.74
43312;BME280;30041;48.300;16.352;2023-01-15T05:31:28;99064.22;;;23.06;42.66
43312;BME280;30041;48.300;16.352;2023-01-15T05:33:54;99063.41;;;23.06;42.69
43312;BME280;30041;48.300;16.352;2023-01-15T05:36:23;99056.97;;;23.07;42.94
43312;BME280;30041;48.300;16.352;2023-01-15T05:38:49;99062.06;;;23.08;42.52
43312;BME280;30041;48.300;16.352;2023-01-15T05:41:17;99068.56;;;23.07;42.56
43312;BME280;30041;48.300;16.352;2023-01-15T05:43:43;99077.50;;;23.08;42.85
43312;BME280;30041;48.300;16.352;2023-01-15T05:46:09;99069.38;;;23.08;42.81
43312;BME280;30041;48.300;16.352;2023-01-15T05:48:34;99077.50;;;23.08;42.87
43312;BME280;30041;48.300;16.352;2023-01-15T05:51:01;99066.69;;;23.08;42.75
43312;BME280;30041;48.300;16.352;2023-01-15T05:53:26;99072.09;;;23.08;42.82
43312;BME280;30041;48.300;16.352;2023-01-15T05:55:52;99070.47;;;23.07;42.86
43312;BME280;30041;48.300;16.352;2023-01-15T05:58:17;99068.81;;;23.06;42.57
43312;BME280;30041;48.300;16.352;2023-01-15T06:00:43;99056.13;;;23.06;42.47
43312;BME280;30041;48.300;16.352;2023-01-15T06:03:08;99050.47;;;23.08;42.79
43312;BME280;30041;48.300;16.352;2023-01-15T06:05:34;99066.44;;;23.09;42.60
43312;BME280;30041;48.300;16.352;2023-01-15T06:08:00;99069.94;;;23.10;42.54
43312;BME280;30041;48.300;16.352;2023-01-15T06:10:25;99114.28;;;23.09;42.75
43312;BME280;30041;48.300;16.352;2023-01-15T06:12:51;99124.00;;;23.10;42.65
43312;BME280;30041;48.300;16.352;2023-01-15T06:15:16;99116.69;;;23.10;42.72
43312;BME280;30041;48.300;16.352;2023-01-15T06:17:42;99115.06;;;23.09;42.56
43312;BME280;30041;48.300;16.352;2023-01-15T06:20:08;99104.25;;;23.09;42.55
43312;BME280;30041;48.300;16.352;2023-01-15T06:22:33;99118.06;;;23.13;42.56
43312;BME280;30041;48.300;16.352;2023-01-15T06:24:59;99099.13;;;23.13;42.51
43312;BME280;30041;48.300;16.352;2023-01-15T06:27:25;99107.25;;;23.13;42.42
43312;BME280;30041;48.300;16.352;2023-01-15T06:29:51;99104.53;;;23.13;42.73
43312;BME280;30041;48.300;16.352;2023-01-15T06:32:17;99113.47;;;23.13;42.52
43312;BME280;30041;48.300;16.352;2023-01-15T06:34:43;99109.94;;;23.13;42.44
43312;BME280;30041;48.300;16.352;2023-01-15T06:37:08;99109.94;;;23.13;42.88
43312;BME280;30041;48.300;16.352;2023-01-15T06:39:34;99098.06;;;23.14;42.66
43312;BME280;30041;48.300;16.352;2023-01-15T06:41:59;99092.13;;;23.12;42.65
43312;BME280;30041;48.300;16.352;2023-01-15T06:47:22;99091.03;;;23.13;42.67
43312;BME280;30041;48.300;16.352;2023-01-15T06:49:54;99082.41;;;23.16;42.89
43312;BME280;30041;48.300;16.352;2023-01-15T06:52:21;99081.03;;;23.13;42.51
43312;BME280;30041;48.300;16.352;2023-01-15T06:54:47;99078.34;;;23.13;42.57
43312;BME280;30041;48.300;16.352;2023-01-15T06:57:14;99082.66;;;23.14;42.62
43312;BME280;30041;48.300;16.352;2023-01-15T06:59:40;99091.56;;;23.15;42.91
43312;BME280;30041;48.300;16.352;2023-01-15T07:02:06;99081.03;;;23.13;42.50
43312;BME280;30041;48.300;16.352;2023-01-15T07:04:31;99067.56;;;23.18;42.70
43312;BME280;30041;48.300;16.352;2023-01-15T07:06:57;99062.13;;;23.13;42.87
43312;BME280;30041;48.300;16.352;2023-01-15T07:09:22;99073.22;;;23.17;42.57
43312;BME280;30041;48.300;16.352;2023-01-15T07:11:48;99070.22;;;23.13;42.62
43312;BME280;30041;48.300;16.352;2023-01-15T07:14:15;99058.09;;;23.16;42.96
43312;BME280;30041;48.300;16.352;2023-01-15T07:16:41;99064.84;;;23.18;42.73
43312;BME280;30041;48.300;16.352;2023-01-15T07:19:07;99058.88;;;23.16;42.68
43312;BME280;30041;48.300;16.352;2023-01-15T07:21:36;99068.34;;;23.19;42.70
43312;BME280;30041;48.300;16.352;2023-01-15T07:24:02;99058.63;;;23.18;42.97
43312;BME280;30041;48.300;16.352;2023-01-15T07:26:28;99039.16;;;23.16;43.02
43312;BME280;30041;48.300;16.352;2023-01-15T07:28:54;99037.81;;;23.13;42.83
43312;BME280;30041;48.300;16.352;2023-01-15T07:31:20;99035.91;;;23.19;42.76
43312;BME280;30041;48.300;16.352;2023-01-15T07:33:45;99046.72;;;23.19;42.77
43312;BME280;30041;48.300;16.352;2023-01-15T07:36:11;99050.53;;;23.18;42.66
43312;BME280;30041;48.300;16.352;2023-01-15T07:38:37;99045.13;;;23.18;42.85
43312;BME280;30041;48.300;16.352;2023-01-15T07:41:02;99052.13;;;23.19;42.97
43312;BME280;30041;48.300;16.352;2023-01-15T07:43:28;99061.88;;;23.20;42.84
43312;BME280;30041;48.300;16.352;2023-01-15T07:45:57;99067.56;;;23.18;42.94
43312;BME280;30041;48.300;16.352;2023-01-15T07:48:22;99064.59;;;23.20;42.89
43312;BME280;30041;48.300;16.352;2023-01-15T07:50:49;99057.53;;;23.19;42.74
43312;BME280;30041;48.300;16.352;2023-01-15T07:53:14;99049.44;;;23.19;42.77
43312;BME280;30041;48.300;16.352;2023-01-15T07:55:40;99029.44;;;23.20;42.76
43312;BME280;30041;48.300;16.352;2023-01-15T07:58:05;99014.84;;;23.21;42.89
43312;BME280;30041;48.300;16.352;2023-01-15T08:00:31;99005.13;;;23.20;42.81
43312;BME280;30041;48.300;16.352;2023-01-15T08:02:57;99002.97;;;23.22;42.93
43312;BME280;30041;48.300;16.352;2023-01-15T08:05:22;98987.81;;;23.21;42.74
43312;BME280;30041;48.300;16.352;2023-01-15T08:07:48;98994.84;;;23.22;42.84
43312;BME280;30041;48.300;16.352;2023-01-15T08:10:14;99002.13;;;23.16;42.89
43312;BME280;30041;48.300;16.352;2023-01-15T08:12:40;99011.34;;;23.20;42.72
43312;BME280;30041;48.300;16.352;2023-01-15T08:15:08;99004.84;;;23.21;42.82
43312;BME280;30041;48.300;16.352;2023-01-15T08:17:35;99008.38;;;23.22;42.67
43312;BME280;30041;48.300;16.352;2023-01-15T08:20:02;99005.38;;;23.18;43.20
43312;BME280;30041;48.300;16.352;2023-01-15T08:22:27;98989.97;;;23.24;43.06
43312;BME280;30041;48.300;16.352;2023-01-15T08:24:53;98985.66;;;23.23;42.63
43312;BME280;30041;48.300;16.352;2023-01-15T08:27:19;98992.41;;;23.26;42.84
43312;BME280;30041;48.300;16.352;2023-01-15T08:29:44;98991.88;;;23.24;42.98
43312;BME280;30041;48.300;16.352;2023-01-15T08:32:10;98984.31;;;23.20;42.92
43312;BME280;30041;48.300;16.352;2023-01-15T08:34:35;98983.50;;;23.25;43.11
43312;BME280;30041;48.300;16.352;2023-01-15T08:37:01;98978.34;;;23.24;42.67
43312;BME280;30041;48.300;16.352;2023-01-15T08:39:26;98982.69;;;23.25;42.80
43312;BME280;30041;48.300;16.352;2023-01-15T08:41:53;98987.00;;;23.26;43.13
43312;BME280;30041;48.300;16.352;2023-01-15T08:44:19;98987.81;;;23.26;42.75
43312;BME280;30041;48.300;16.352;2023-01-15T08:46:44;98984.88;;;23.28;42.92
43312;BME280;30041;48.300;16.352;2023-01-15T08:49:10;98988.66;;;23.27;42.96
43312;BME280;30041;48.300;16.352;2023-01-15T08:51:35;98990.28;;;23.28;43.03
43312;BME280;30041;48.300;16.352;2023-01-15T08:54:01;98982.97;;;23.28;43.51
43312;BME280;30041;48.300;16.352;2023-01-15T08:56:29;98982.63;;;23.09;44.16
43312;BME280;30041;48.300;16.352;2023-01-15T08:58:54;98987.16;;;22.98;44.68
43312;BME280;30041;48.300;16.352;2023-01-15T09:01:20;98995.25;;;22.93;44.78
43312;BME280;30041;48.300;16.352;2023-01-15T09:03:46;99004.63;;;22.86;44.66
43312;BME280;30041;48.300;16.352;2023-01-15T09:06:11;99007.88;;;22.83;45.15
43312;BME280;30041;48.300;16.352;2023-01-15T09:08:37;98993.25;;;22.78;45.04
43312;BME280;30041;48.300;16.352;2023-01-15T09:11:04;99001.34;;;22.73;45.31
43312;BME280;30041;48.300;16.352;2023-01-15T09:13:34;99007.31;;;22.80;44.79
43312;BME280;30041;48.300;16.352;2023-01-15T09:16:01;99014.09;;;22.88;44.96
43312;BME280;30041;48.300;16.352;2023-01-15T09:18:27;99014.16;;;22.93;44.69
43312;BME280;30041;48.300;16.352;2023-01-15T09:20:53;98998.22;;;22.97;44.68
43312;BME280;30041;48.300;16.352;2023-01-15T09:23:18;99002.00;;;22.96;44.54
43312;BME280;30041;48.300;16.352;2023-01-15T09:25:54;98997.34;;;22.86;44.81
43312;BME280;30041;48.300;16.352;2023-01-15T09:28:20;99009.25;;;22.90;44.79
43312;BME280;30041;48.300;16.352;2023-01-15T09:30:46;99007.16;;;22.97;45.00
43312;BME280;30041;48.300;16.352;2023-01-15T09:33:11;99010.09;;;22.91;44.62
43312;BME280;30041;48.300;16.352;2023-01-15T09:35:39;99004.91;;;22.84;44.70
43312;BME280;30041;48.300;16.352;2023-01-15T09:38:05;99001.34;;;22.73;44.77
43312;BME280;30041;48.300;16.352;2023-01-15T09:40:45;99000.03;;;22.86;44.98
43312;BME280;30041;48.300;16.352;2023-01-15T09:46:20;98996.41;;;22.65;45.57
43312;BME280;30041;48.300;16.352;2023-01-15T09:49:05;98994.94;;;22.42;46.52
43312;BME280;30041;48.300;16.352;2023-01-15T09:51:58;98995.41;;;22.34;46.65
43312;BME280;30041;48.300;16.352;2023-01-15T09:55:01;98988.63;;;22.31;46.87
43312;BME280;30041;48.300;16.352;2023-01-15T09:57:30;98987.06;;;22.35;46.56
43312;BME280;30041;48.300;16.352;2023-01-15T09:59:57;98986.25;;;22.35;46.26
43312;BME280;30041;48.300;16.352;2023-01-15T10:02:45;98977.09;;;22.41;45.87
43312;BME280;30041;48.300;16.352;2023-01-15T10:05:20;98971.66;;;22.36;45.83
43312;BME280;30041;48.300;16.352;2023-01-15T10:08:18;98961.94;;;22.35;45.40
43312;BME280;30041;48.300;16.352;2023-01-15T10:10:47;98967.63;;;22.38;45.03
43312;BME280;30041;48.300;16.352;2023-01-15T10:15:58;98974.88;;;22.33;44.51
43312;BME280;30041;48.300;16.352;2023-01-15T10:18:26;98977.03;;;22.31;44.47
43312;BME280;30041;48.300;16.352;2023-01-15T10:21:20;98983.97;;;22.22;44.10
43312;BME280;30041;48.300;16.352;2023-01-15T10:24:03;98983.97;;;22.22;44.16
43312;BME280;30041;48.300;16.352;2023-01-15T10:29:03;99003.91;;;22.21;43.78
43312;BME280;30041;48.300;16.352;2023-01-15T10:34:23;98996.41;;;22.23;44.78
43312;BME280;30041;48.300;16.352;2023-01-15T10:36:55;98995.22;;;22.13;44.88
43312;BME280;30041;48.300;16.352;2023-01-15T10:44:47;98951.59;;;22.22;44.42
43312;BME280;30041;48.300;16.352;2023-01-15T10:47:21;98951.06;;;22.25;44.15
43312;BME280;30041;48.300;16.352;2023-01-15T10:49:50;98955.66;;;22.24;44.08
43312;BME280;30041;48.300;16.352;2023-01-15T10:54:48;98948.16;;;22.31;44.07
43312;BME280;30041;48.300;16.352;2023-01-15T10:57:59;98940.28;;;22.30;44.39
43312;BME280;30041;48.300;16.352;2023-01-15T11:00:30;98924.41;;;22.33;44.41
43312;BME280;30041;48.300;16.352;2023-01-15T11:03:14;98920.63;;;22.34;44.38
43312;BME280;30041;48.300;16.352;2023-01-15T11:05:41;98916.56;;;22.37;44.54
43312;BME280;30041;48.300;16.352;2023-01-15T11:08:18;98912.81;;;22.33;44.56
43312;BME280;30041;48.300;16.352;2023-01-15T11:10:45;98906.88;;;22.36;44.70
43312;BME280;30041;48.300;16.352;2023-01-15T11:13:22;98907.97;;;22.40;44.59
43312;BME280;30041;48.300;16.352;2023-01-15T11:15:49;98896.63;;;22.38;44.71
43312;BME280;30041;48.300;16.352;2023-01-15T11:18:24;98902.03;;;22.38;44.78
43312;BME280;30041;48.300;16.352;2023-01-15T11:20:50;98889.72;;;22.63;44.16
43312;BME280;30041;48.300;16.352;2023-01-15T11:23:19;98893.53;;;22.67;44.42
43312;BME280;30041;48.300;16.352;2023-01-15T11:28:13;98885.19;;;22.78;44.54
43312;BME280;30041;48.300;16.352;2023-01-15T11:30:51;98888.75;;;22.89;44.14
43312;BME280;30041;48.300;16.352;2023-01-15T11:33:25;98894.63;;;22.71;44.84
43312;BME280;30041;48.300;16.352;2023-01-15T11:35:56;98887.59;;;22.65;44.87
43312;BME280;30041;48.300;16.352;2023-01-15T11:38:29;98889.19;;;22.61;44.99
43312;BME280;30041;48.300;16.352;2023-01-15T11:40:58;98884.03;;;22.59;45.04
43312;BME280;30041;48.300;16.352;2023-01-15T11:43:31;98886.19;;;22.57;45.26
43312;BME280;30041;48.300;16.352;2023-01-15T11:46:00;98882.16;;;22.59;45.17
43312;BME280;30041;48.300;16.352;2023-01-15T11:48:26;98887.59;;;22.65;44.97
43312;BME280;30041;48.300;16.352;2023-01-15T11:51:00;98892.13;;;22.59;45.07
43312;BME280;30041;48.300;16.352;2023-01-15T11:53:29;98885.97;;;22.69;44.69
43312;BME280;30041;48.300;16.352;2023-01-15T11:56:05;98881.63;;;22.57;43.35
43312;BME280;30041;48.300;16.352;2023-01-15T11:58:46;98876.47;;;22.56;43.86
43312;BME280;30041;48.300;16.352;2023-01-15T12:01:35;98879.41;;;22.54;44.26
43312;BME280;30041;48.300;16.352;2023-01-15T12:04:18;98877.28;;;22.56;44.28
43312;BME280;30041;48.300;16.352;2023-01-15T12:06:47;98874.06;;;22.59;44.65
43312;BME280;30041;48.300;16.352;2023-01-15T12:09:24;98875.13;;;22.58;44.36
43312;BME280;30041;48.300;16.352;2023-01-15T12:15:02;98855.91;;;22.50;44.72
43312;BME280;30041;48.300;16.352;2023-01-15T12:20:51;98833.19;;;22.41;45.11
43312;BME280;30041;48.300;16.352;2023-01-15T12:31:35;98838.25;;;22.27;45.17
43312;BME280;30041;48.300;16.352;2023-01-15T12:34:22;98833.66;;;22.27;45.26
43312;BME280;30041;48.300;16.352;2023-01-15T12:36:53;98832.84;;;22.22;45.36
43312;BME280;30041;48.300;16.352;2023-01-15T12:39:42;98837.03;;;22.12;45.53
43312;BME280;30041;48.300;16.352;2023-01-15T12:42:16;98843.00;;;22.14;45.38
43312;BME280;30041;48.300;16.352;2023-01-15T12:44:50;98841.88;;;22.05;45.64
43312;BME280;30041;48.300;16.352;2023-01-15T12:47:24;98839.16;;;22.05;45.75
43312;BME280;30041;48.300;16.352;2023-01-15T12:50:22;98834.81;;;21.99;45.75
43312;BME280;30041;48.300;16.352;2023-01-15T12:52:53;98842.44;;;22.07;45.68
43312;BME280;30041;48.300;16.352;2023-01-15T12:55:27;98831.06;;;22.00;46.03
43312;BME280;30041;48.300;16.352;2023-01-15T12:57:59;98841.31;;;22.03;45.91
43312;BME280;30041;48.300;16.352;2023-01-15T13:00:38;98833.75;;;22.00;46.12
43312;BME280;30041;48.300;16.352;2023-01-15T13:03:28;98837.78;;;21.97;46.06
43312;BME280;30041;48.300;16.352;2023-01-15T13:06:00;98826.19;;;21.97;46.01
43312;BME280;30041;48.300;16.352;2023-01-15T13:08:48;98824.34;;;22.08;45.45
43312;BME280;30041;48.300;16.352;2023-01-15T13:11:22;98809.78;;;22.09;45.83
43312;BME280;30041;48.300;16.352;2023-01-15T13:13:48;98804.66;;;22.12;45.81
43312;BME280;30041;48.300;16.352;2023-01-15T13:16:21;98810.38;;;22.21;45.93
43312;BME280;30041;48.300;16.352;2023-01-15T13:19:28;98807.38;;;22.12;45.90
43312;BME280;30041;48.300;16.352;2023-01-15T13:22:00;98808.69;;;22.10;46.15
43312;BME280;30041;48.300;16.352;2023-01-15T13:24:58;98820.84;;;22.07;46.06
43312;BME280;30041;48.300;16.352;2023-01-15T13:27:44;98818.63;;;21.99;46.32
43312;BME280;30041;48.300;16.352;2023-01-15T13:30:47;98814.28;;;21.93;46.52
43312;BME280;30041;48.300;16.352;2023-01-15T13:35:52;98803.22;;;21.94;46.33
43312;BME280;30041;48.300;16.352;2023-01-15T13:38:21;98802.97;;;21.96;46.29
43312;BME280;30041;48.300;16.352;2023-01-15T13:40:52;98802.94;;;21.91;46.31
43312;BME280;30041;48.300;16.352;2023-01-15T13:43:27;98802.94;;;21.91;46.57
43312;BME280;30041;48.300;16.352;2023-01-15T13:45:55;98804.28;;;21.88;46.56
43312;BME280;30041;48.300;16.352;2023-01-15T13:48:40;98790.59;;;22.00;46.05
43312;BME280;30041;48.300;16.352;2023-01-15T13:51:26;98800.25;;;21.91;46.49
43312;BME280;30041;48.300;16.352;2023-01-15T13:53:55;98804.31;;;21.93;46.46
43312;BME280;30041;48.300;16.352;2023-01-15T13:56:32;98793.53;;;21.98;46.37
43312;BME280;30041;48.300;16.352;2023-01-15T13:59:23;98805.34;;;21.87;46.60
43312;BME280;30041;48.300;16.352;2023-01-15T14:01:46;98807.22;;;21.87;46.39
43312;BME280;30041;48.300;16.352;2023-01-15T14:04:16;98811.50;;;21.83;46.56
43312;BME280;30041;48.300;16.352;2023-01-15T14:06:49;98821.13;;;21.68;44.50
43312;BME280;30041;48.300;16.352;2023-01-15T14:12:20;98820.34;;;22.15;44.20
43312;BME280;30041;48.300;16.352;2023-01-15T14:17:45;98825.91;;;22.41;43.58